Time;durP1;ratioP1;P1;durP2;ratioP2;P2;SDS_P1;SDS_P2;PMS_P1;PMS_P2;Temp;Humidity;BMP_temperature;BMP_pressure;BME280_temperature;BME280_humidity;BME280_pressure;Samples;Min_cycle;Max_cycle;Signal;HPM_P1;HPM_P2
2022/12/20 00:02:02;;;;;;;49.47;28.73;;;3.70;99.90;;;;;;4727092;28;10000516;-75
2022/12/20 00:04:28;;;;;;;47.10;27.13;;;3.80;99.90;;;;;;5083561;28;20028;-74
2022/12/20 00:06:54;;;;;;;51.53;28.38;;;3.80;99.90;;;;;;5084353;28;20032;-74
2022/12/20 00:09:19;;;;;;;51.53;27.70;;;3.90;99.90;;;;;;5078832;28;20509;-75
2022/12/20 00:11:45;;;;;;;48.42;27.10;;;3.90;99.90;;;;;;5083605;28;20608;-74
2022/12/20 00:14:11;;;;;;;51.88;27.85;;;3.80;99.90;;;;;;5079719;28;20557;-74
2022/12/20 00:16:37;;;;;;;47.35;27.33;;;3.80;99.90;;;;;;5075039;28;20023;-74
2022/12/20 00:19:05;;;;;;;49.80;28.15;;;3.90;99.90;;;;;;5079638;28;20024;-74
2022/12/20 00:21:32;;;;;;;52.05;29.08;;;3.90;99.90;;;;;;5078859;28;20031;-74
2022/12/20 00:23:59;;;;;;;48.50;28.45;;;3.90;99.90;;;;;;5079070;28;20115;-74
2022/12/20 00:26:28;;;;;;;47.40;28.05;;;3.90;99.90;;;;;;5073517;28;20032;-74
2022/12/20 00:28:54;;;;;;;48.65;27.48;;;3.90;99.90;;;;;;5076635;28;20028;-74
2022/12/20 00:31:21;;;;;;;47.97;26.27;;;3.90;99.90;;;;;;5083419;28;20166;-74
2022/12/20 00:33:49;;;;;;;47.20;26.67;;;3.90;99.90;;;;;;5080645;28;20243;-74
2022/12/20 00:36:16;;;;;;;44.00;26.50;;;3.90;99.90;;;;;;5076720;28;20024;-74
2022/12/20 00:38:44;;;;;;;47.10;27.00;;;3.80;99.90;;;;;;5080581;28;20024;-74
2022/12/20 00:41:12;;;;;;;48.88;27.67;;;3.90;99.90;;;;;;5085086;28;20081;-74
2022/12/20 00:43:39;;;;;;;50.63;28.17;;;3.80;99.90;;;;;;5074963;28;20028;-74
2022/12/20 00:46:06;;;;;;;47.17;26.45;;;3.80;99.90;;;;;;5079928;28;20123;-74
2022/12/20 00:48:32;;;;;;;47.95;26.92;;;3.80;99.90;;;;;;5077527;28;20097;-74
2022/12/20 00:51:12;;;;;;;47.78;27.13;;;3.80;99.90;;;;;;5076809;28;20063;-74
2022/12/20 00:53:38;;;;;;;50.38;27.23;;;3.80;99.90;;;;;;5075676;28;20025;-74
2022/12/20 00:56:05;;;;;;;45.88;27.17;;;3.90;99.90;;;;;;5078670;28;20016;-74
2022/12/20 00:58:36;;;;;;;45.65;26.48;;;3.90;99.90;;;;;;5080339;28;20055;-74
2022/12/20 01:01:02;;;;;;;49.45;28.00;;;3.90;99.90;;;;;;5080177;28;20452;-74
2022/12/20 01:03:28;;;;;;;45.60;26.73;;;3.90;99.90;;;;;;5063735;28;20029;-75
2022/12/20 01:05:57;;;;;;;46.47;26.77;;;3.90;99.90;;;;;;5077110;28;20093;-75
2022/12/20 01:08:23;;;;;;;44.35;25.35;;;3.90;99.90;;;;;;5073538;28;20486;-75
2022/12/20 01:11:10;;;;;;;45.25;26.50;;;3.80;99.90;;;;;;5082234;28;20034;-74
2022/12/20 01:13:37;;;;;;;47.13;26.98;;;3.80;99.90;;;;;;5071616;28;20024;-75
2022/12/20 01:16:13;;;;;;;46.60;26.20;;;3.80;99.90;;;;;;5076022;28;20024;-74
2022/12/20 01:18:38;;;;;;;46.38;26.20;;;3.80;99.90;;;;;;5075834;28;20617;-75
2022/12/20 01:21:07;;;;;;;47.08;27.33;;;3.70;99.90;;;;;;5076584;28;20131;-74
2022/12/20 01:23:34;;;;;;;45.83;27.15;;;3.70;99.90;;;;;;5072226;28;20024;-75
2022/12/20 01:26:03;;;;;;;49.80;27.85;;;3.60;99.90;;;;;;5078593;28;20437;-74
2022/12/20 01:28:29;;;;;;;49.65;28.42;;;3.70;99.90;;;;;;5076296;28;20022;-74
2022/12/20 01:30:55;;;;;;;47.25;27.83;;;3.70;99.90;;;;;;5077158;28;20055;-74
2022/12/20 01:33:21;;;;;;;49.75;29.23;;;3.70;99.90;;;;;;5072139;28;20043;-74
2022/12/20 01:36:02;;;;;;;46.83;27.23;;;3.70;99.90;;;;;;5074082;28;20032;-74
2022/12/20 01:38:28;;;;;;;48.03;27.52;;;3.70;99.90;;;;;;5083257;28;20028;-74
2022/12/20 01:40:56;;;;;;;47.63;27.58;;;3.80;99.90;;;;;;5078041;28;20028;-74
2022/12/20 01:43:24;;;;;;;48.92;27.85;;;3.70;99.90;;;;;;5070570;28;20105;-74
2022/12/20 01:45:50;;;;;;;46.50;27.60;;;3.70;99.90;;;;;;5075185;28;20090;-74
2022/12/20 01:48:22;;;;;;;46.35;27.08;;;3.70;99.90;;;;;;5078828;28;20036;-74
2022/12/20 01:50:50;;;;;;;50.15;29.42;;;3.80;99.90;;;;;;5083514;28;20726;-74
2022/12/20 01:53:19;;;;;;;45.70;27.60;;;3.70;99.90;;;;;;5072554;28;20054;-74
2022/12/20 01:55:46;;;;;;;49.80;28.60;;;3.70;99.90;;;;;;5087758;28;20126;-74
2022/12/20 01:58:15;;;;;;;49.53;27.70;;;3.70;99.90;;;;;;5079332;28;20059;-74
2022/12/20 02:00:41;;;;;;;48.75;28.88;;;3.80;99.90;;;;;;5083917;28;20066;-74
2022/12/20 02:03:11;;;;;;;48.80;27.95;;;3.90;99.90;;;;;;5079451;28;20056;-74
2022/12/20 02:05:44;;;;;;;51.22;28.25;;;3.90;99.90;;;;;;5084545;28;20119;-74
2022/12/20 02:08:12;;;;;;;47.20;27.73;;;3.90;99.90;;;;;;5079537;28;20505;-74
2022/12/20 02:11:02;;;;;;;47.88;27.00;;;4.00;99.90;;;;;;5081026;28;20028;-74
2022/12/20 02:13:44;;;;;;;49.20;28.65;;;4.00;99.90;;;;;;5078540;28;20201;-74
2022/12/20 02:16:16;;;;;;;53.35;28.05;;;4.00;99.90;;;;;;5083801;28;20032;-74
2022/12/20 02:19:00;;;;;;;48.90;27.95;;;4.00;99.90;;;;;;5081911;28;20028;-74
2022/12/20 02:21:38;;;;;;;50.40;28.45;;;4.00;99.90;;;;;;5086888;28;20036;-74
2022/12/20 02:24:31;;;;;;;49.60;27.65;;;4.00;99.90;;;;;;5080480;28;20031;-74
2022/12/20 02:27:29;;;;;;;38.50;20.50;;;4.00;99.90;;;;;;5084409;28;20050;-75
2022/12/20 02:30:01;;;;;;;45.50;26.73;;;3.90;99.90;;;;;;5079655;28;20119;-74
2022/12/20 02:32:51;;;;;;;48.55;27.50;;;3.90;99.90;;;;;;5074048;28;20036;-75
2022/12/20 02:35:24;;;;;;;46.70;27.55;;;3.90;99.90;;;;;;5085407;28;20503;-74
2022/12/20 02:37:50;;;;;;;;;;;3.90;99.90;;;;;;5082196;28;20237;-74
2022/12/20 02:40:21;;;;;;;48.25;26.63;;;3.90;99.90;;;;;;5085060;28;20407;-74
2022/12/20 02:42:50;;;;;;;45.33;25.63;;;3.90;99.90;;;;;;5081390;28;20130;-74
2022/12/20 02:45:20;;;;;;;44.17;26.75;;;3.90;99.90;;;;;;5081187;28;20070;-74
2022/12/20 02:48:09;;;;;;;43.33;26.80;;;3.90;99.90;;;;;;5085537;28;20028;-74
2022/12/20 02:50:45;;;;;;;48.58;27.92;;;3.90;99.90;;;;;;5078157;28;20579;-74
2022/12/20 02:53:12;;;;;;;45.72;26.23;;;3.90;99.90;;;;;;5076514;28;20044;-74
2022/12/20 02:56:13;;;;;;;45.90;28.15;;;4.00;99.90;;;;;;5083513;28;20035;-75
2022/12/20 02:58:59;;;;;;;46.95;26.83;;;4.00;99.90;;;;;;5067655;28;20129;-74
2022/12/20 03:01:36;;;;;;;45.97;26.83;;;4.00;99.90;;;;;;5084327;28;20393;-74
2022/12/20 03:04:03;;;;;;;43.40;25.95;;;4.00;99.90;;;;;;5076565;28;20537;-74
2022/12/20 03:06:32;;;;;;;45.85;27.35;;;4.00;99.90;;;;;;5079623;28;20055;-74
2022/12/20 03:08:57;;;;;;;43.72;26.75;;;3.90;99.90;;;;;;5058692;28;20028;-74
2022/12/20 03:11:23;;;;;;;45.33;27.15;;;3.90;99.90;;;;;;5082628;28;20113;-74
2022/12/20 03:13:48;;;;;;;46.42;26.70;;;3.90;99.90;;;;;;5085499;28;20119;-74
2022/12/20 03:16:14;;;;;;;49.38;28.60;;;3.90;99.90;;;;;;5082386;28;20494;-74
2022/12/20 03:18:39;;;;;;;47.03;27.38;;;4.00;99.90;;;;;;5085090;28;20051;-74
2022/12/20 03:21:05;;;;;;;48.50;28.45;;;3.90;99.90;;;;;;5082558;28;20179;-74
2022/12/20 03:23:31;;;;;;;50.00;28.23;;;4.00;99.90;;;;;;5079841;28;20047;-75
2022/12/20 03:25:57;;;;;;;48.33;28.55;;;4.00;99.90;;;;;;5083213;28;20111;-75
2022/12/20 03:28:23;;;;;;;46.97;27.25;;;4.10;99.90;;;;;;5085483;28;20024;-75
2022/12/20 03:30:48;;;;;;;44.63;25.70;;;4.10;99.90;;;;;;5077701;28;20043;-74
2022/12/20 03:33:14;;;;;;;47.45;26.98;;;4.20;99.90;;;;;;5078854;28;20020;-74
2022/12/20 03:35:40;;;;;;;46.47;26.80;;;4.20;99.90;;;;;;5084689;28;20527;-75
2022/12/20 03:38:06;;;;;;;46.33;27.35;;;4.20;99.90;;;;;;5083395;28;20035;-75
2022/12/20 03:40:32;;;;;;;50.15;27.50;;;4.30;99.90;;;;;;5080938;28;20028;-74
2022/12/20 03:42:57;;;;;;;46.25;27.20;;;4.20;99.90;;;;;;5078465;28;20387;-74
2022/12/20 03:45:23;;;;;;;47.25;26.48;;;4.30;99.90;;;;;;5081147;28;20391;-75
2022/12/20 03:47:49;;;;;;;43.58;26.23;;;4.30;99.90;;;;;;5082693;28;20020;-75
2022/12/20 03:50:14;;;;;;;47.03;27.45;;;4.30;99.90;;;;;;5081603;28;20029;-75
2022/12/20 03:52:40;;;;;;;42.60;25.90;;;4.30;99.90;;;;;;5074435;28;20059;-75
2022/12/20 03:55:06;;;;;;;42.65;26.20;;;4.30;99.90;;;;;;5085834;28;20028;-74
2022/12/20 03:57:32;;;;;;;43.47;25.45;;;4.30;99.90;;;;;;5085592;28;20543;-74
2022/12/20 03:59:58;;;;;;;41.28;25.65;;;4.30;99.90;;;;;;5081192;28;20107;-74
2022/12/20 04:02:23;;;;;;;42.53;25.33;;;4.30;99.90;;;;;;5079093;28;20511;-74
2022/12/20 04:04:49;;;;;;;41.65;23.70;;;4.30;99.90;;;;;;5078706;28;20474;-74
2022/12/20 04:07:15;;;;;;;42.28;24.88;;;4.30;99.90;;;;;;5083675;28;20024;-75
2022/12/20 04:09:41;;;;;;;43.15;25.33;;;4.30;99.90;;;;;;5077051;28;20569;-74
2022/12/20 04:12:06;;;;;;;44.13;26.00;;;4.30;99.90;;;;;;5081705;28;20035;-75
2022/12/20 04:14:32;;;;;;;44.60;25.38;;;4.30;99.90;;;;;;5079910;28;20737;-74
2022/12/20 04:16:58;;;;;;;41.90;26.40;;;4.30;99.90;;;;;;5080353;28;20113;-75
2022/12/20 04:19:23;;;;;;;42.90;25.77;;;4.30;99.90;;;;;;5074590;28;22701;-74
2022/12/20 04:21:49;;;;;;;50.25;26.73;;;4.40;99.90;;;;;;5086418;28;20485;-74
2022/12/20 04:24:15;;;;;;;51.95;27.98;;;4.40;99.90;;;;;;5077488;28;20075;-74
2022/12/20 04:26:40;;;;;;;63.85;30.83;;;4.40;99.90;;;;;;5081030;28;20397;-74
2022/12/20 04:29:06;;;;;;;63.40;31.23;;;4.40;99.90;;;;;;5076777;28;20102;-75
2022/12/20 04:31:32;;;;;;;45.03;25.52;;;4.30;99.90;;;;;;5083357;28;20638;-74
2022/12/20 04:33:58;;;;;;;40.50;24.55;;;4.40;99.90;;;;;;5083290;28;20123;-74
2022/12/20 04:36:24;;;;;;;41.58;23.73;;;4.40;99.90;;;;;;5076919;28;20120;-74
2022/12/20 04:38:49;;;;;;;39.05;23.65;;;4.50;99.90;;;;;;5074936;28;20024;-75
2022/12/20 04:41:21;;;;;;;39.22;23.40;;;4.60;99.90;;;;;;5079814;28;20105;-75
2022/12/20 04:43:52;;;;;;;41.50;24.17;;;4.60;99.90;;;;;;5077962;28;20043;-75
2022/12/20 04:46:20;;;;;;;36.72;23.00;;;4.70;99.90;;;;;;5081574;28;20083;-75
2022/12/20 04:48:46;;;;;;;36.92;22.58;;;4.70;99.90;;;;;;5073989;28;20531;-74
2022/12/20 04:51:12;;;;;;;35.70;22.23;;;4.80;99.90;;;;;;5080320;28;20024;-74
2022/12/20 04:53:47;;;;;;;36.88;22.83;;;4.80;99.90;;;;;;5083720;28;20099;-75
2022/12/20 04:56:30;;;;;;;34.30;21.75;;;4.90;99.90;;;;;;5079199;28;20542;-75
2022/12/20 04:58:57;;;;;;;;;;;4.90;99.90;;;;;;5080381;28;20514;-75
2022/12/20 05:01:23;;;;;;;36.67;20.92;;;5.00;99.90;;;;;;5075624;28;19957;-75
2022/12/20 05:03:49;;;;;;;39.60;22.90;;;5.00;99.90;;;;;;5078918;28;20062;-75
2022/12/20 05:06:15;;;;;;;38.58;21.60;;;5.00;99.90;;;;;;5075669;28;20051;-74
2022/12/20 05:08:41;;;;;;;37.67;22.23;;;5.00;99.90;;;;;;5073044;28;20028;-74
2022/12/20 05:11:07;;;;;;;35.20;21.13;;;5.10;99.90;;;;;;5075181;28;20509;-74
2022/12/20 05:13:33;;;;;;;42.28;23.17;;;5.10;99.90;;;;;;5069518;28;20024;-74
2022/12/20 05:15:59;;;;;;;39.70;22.88;;;5.10;99.90;;;;;;5080121;28;20024;-74
2022/12/20 05:18:26;;;;;;;38.83;22.90;;;5.10;99.90;;;;;;5072549;28;20645;-74
2022/12/20 05:26:33;;;;;;;35.88;21.50;;;5.10;99.90;;;;;;5082445;28;19915;-74
2022/12/20 05:28:59;;;;;;;32.78;20.67;;;5.10;99.90;;;;;;5079635;28;20032;-74
2022/12/20 05:31:24;;;;;;;32.20;19.80;;;5.20;99.90;;;;;;5080309;28;20109;-74
2022/12/20 05:33:50;;;;;;;35.50;20.48;;;5.20;99.90;;;;;;5073010;28;20032;-74
2022/12/20 05:36:16;;;;;;;34.25;20.10;;;5.20;99.90;;;;;;5083710;28;20028;-75
2022/12/20 05:38:41;;;;;;;31.60;19.55;;;5.30;99.90;;;;;;5087978;28;20064;-74
2022/12/20 05:41:07;;;;;;;32.15;20.15;;;5.30;99.90;;;;;;5082566;28;20550;-74
2022/12/20 05:43:33;;;;;;;32.42;19.90;;;5.30;99.90;;;;;;5081084;28;20032;-75
2022/12/20 05:45:59;;;;;;;38.70;21.30;;;5.30;99.90;;;;;;5082238;28;20240;-74
2022/12/20 05:48:25;;;;;;;37.50;23.35;;;5.20;99.90;;;;;;5086974;28;20025;-74
2022/12/20 05:50:50;;;;;;;31.13;19.75;;;5.20;99.90;;;;;;5079604;28;20051;-74
2022/12/20 05:53:16;;;;;;;32.95;18.10;;;5.20;99.90;;;;;;5074886;28;20020;-75
2022/12/20 05:55:50;;;;;;;27.75;18.50;;;5.20;99.90;;;;;;5076707;28;20020;-75
2022/12/20 05:58:17;;;;;;;28.92;18.42;;;5.20;99.90;;;;;;5069501;28;20789;-74
2022/12/20 06:00:44;;;;;;;28.20;17.33;;;5.20;99.90;;;;;;5058780;28;20039;-75
2022/12/20 06:03:11;;;;;;;28.85;17.63;;;5.20;99.90;;;;;;5056983;28;20084;-75
2022/12/20 06:05:38;;;;;;;28.67;18.38;;;5.10;99.90;;;;;;5076720;28;20119;-75
2022/12/20 06:08:05;;;;;;;32.75;18.02;;;5.20;99.90;;;;;;5073815;28;20034;-74
2022/12/20 06:10:31;;;;;;;25.50;15.95;;;5.20;99.90;;;;;;5077939;28;20047;-75
2022/12/20 06:12:57;;;;;;;39.72;21.48;;;5.10;99.90;;;;;;5081059;28;20693;-75
2022/12/20 06:15:22;;;;;;;27.20;17.10;;;5.10;99.90;;;;;;5081338;28;20032;-74
2022/12/20 06:17:48;;;;;;;25.65;15.38;;;5.10;99.90;;;;;;5088865;28;20028;-75
2022/12/20 06:20:14;;;;;;;22.73;15.15;;;5.10;99.90;;;;;;5077062;28;20081;-75
2022/12/20 06:22:39;;;;;;;25.17;15.48;;;5.10;99.90;;;;;;5080371;28;20656;-75
2022/12/20 06:25:08;;;;;;;27.27;15.90;;;5.10;99.90;;;;;;5077372;28;20627;-74
2022/12/20 06:27:34;;;;;;;23.80;14.82;;;5.10;99.90;;;;;;5076333;28;20036;-74
2022/12/20 06:30:00;;;;;;;24.30;15.52;;;5.00;99.90;;;;;;5081462;28;20021;-74
2022/12/20 06:32:26;;;;;;;24.95;14.55;;;5.00;99.90;;;;;;5085237;28;20558;-74
2022/12/20 06:34:51;;;;;;;19.63;13.25;;;5.10;99.90;;;;;;5085962;28;20122;-74
2022/12/20 06:37:17;;;;;;;21.15;13.75;;;5.10;99.90;;;;;;5086666;28;20046;-74
2022/12/20 06:39:42;;;;;;;27.00;15.15;;;5.10;99.90;;;;;;5082836;28;20073;-74
2022/12/20 06:42:08;;;;;;;25.63;15.00;;;5.10;99.90;;;;;;5079652;28;20058;-74
2022/12/20 06:44:34;;;;;;;29.52;15.77;;;5.10;99.90;;;;;;5085806;28;20129;-74
2022/12/20 06:47:01;;;;;;;26.15;14.90;;;5.10;99.90;;;;;;5085052;28;20021;-75
2022/12/20 06:49:42;;;;;;;24.05;14.30;;;5.20;99.90;;;;;;5085962;28;20111;-76
2022/12/20 06:52:08;;;;;;;21.38;14.68;;;;;;;;;;5078853;28;20028;-76
2022/12/20 06:54:34;;;;;;;23.55;14.23;;;;;;;;;;5082385;28;20036;-77
2022/12/20 06:57:00;;;;;;;21.90;13.93;;;;;;;;;;5079881;28;20092;-76
2022/12/20 06:59:26;;;;;;;23.60;14.95;;;;;;;;;;5089144;28;20111;-76
2022/12/20 07:01:52;;;;;;;20.92;13.65;;;;;;;;;;5075558;28;20489;-76
2022/12/20 07:04:18;;;;;;;27.10;15.82;;;;;;;;;;5089496;28;20043;-77
2022/12/20 07:06:44;;;;;;;24.88;15.30;;;;;;;;;;5089492;28;20650;-77
2022/12/20 07:09:10;;;;;;;25.60;15.60;;;;;;;;;;5085986;28;20044;-76
2022/12/20 07:11:37;;;;;;;22.55;13.95;;;;;;;;;;5083191;28;20492;-77
2022/12/20 07:14:03;;;;;;;23.25;14.65;;;;;;;;;;5077196;28;20020;-76
2022/12/20 07:16:31;;;;;;;22.52;14.20;;;;;;;;;;5076865;28;20178;-76
2022/12/20 07:18:56;;;;;;;25.38;14.85;;;5.30;99.90;;;;;;5079125;28;20043;-76
2022/12/20 07:21:22;;;;;;;20.73;13.75;;;5.30;99.90;;;;;;5075985;28;20040;-76
2022/12/20 07:23:48;;;;;;;19.92;13.15;;;5.10;99.90;;;;;;5082587;28;20031;-76
2022/12/20 07:26:14;;;;;;;21.00;13.63;;;5.10;99.90;;;;;;5080500;28;20047;-76
2022/12/20 07:28:40;;;;;;;21.20;14.75;;;5.10;99.90;;;;;;5080768;28;20103;-76
2022/12/20 07:31:06;;;;;;;18.67;12.70;;;5.10;99.90;;;;;;5073451;28;20659;-76
2022/12/20 07:33:33;;;;;;;23.55;15.50;;;5.00;99.90;;;;;;5085368;28;20108;-76
2022/12/20 07:36:04;;;;;;;21.85;14.27;;;5.00;99.90;;;;;;5081515;28;20035;-76
2022/12/20 07:38:30;;;;;;;30.52;17.55;;;5.00;99.90;;;;;;5082783;28;20035;-76
2022/12/20 07:40:56;;;;;;;24.25;15.55;;;5.00;99.90;;;;;;5076647;28;20131;-76
2022/12/20 07:43:22;;;;;;;27.00;15.70;;;5.10;99.90;;;;;;5076025;28;20024;-76
2022/12/20 07:45:52;;;;;;;32.40;18.83;;;5.00;99.90;;;;;;5082505;28;20066;-76
2022/12/20 07:48:17;;;;;;;32.75;19.27;;;5.00;99.90;;;;;;5077183;28;20020;-76
2022/12/20 07:50:43;;;;;;;23.33;15.45;;;5.00;99.90;;;;;;5069278;28;20036;-76
2022/12/20 07:53:10;;;;;;;26.20;14.77;;;5.10;99.90;;;;;;5077020;28;20051;-76
2022/12/20 07:55:38;;;;;;;21.30;13.60;;;5.20;99.90;;;;;;5078252;28;20013;-77
2022/12/20 07:58:06;;;;;;;21.38;13.40;;;5.20;99.90;;;;;;5076762;28;20696;-76
2022/12/20 08:00:32;;;;;;;21.48;13.10;;;5.20;99.90;;;;;;5079275;28;20036;-76
2022/12/20 08:03:10;;;;;;;24.23;13.35;;;5.30;99.90;;;;;;5082242;28;20449;-76
2022/12/20 08:05:39;;;;;;;19.98;12.77;;;5.30;99.90;;;;;;5080296;28;20038;-76
2022/12/20 08:08:07;;;;;;;21.50;12.35;;;5.30;99.90;;;;;;5082865;28;20016;-76
2022/12/20 08:10:32;;;;;;;21.75;13.57;;;5.30;99.90;;;;;;5086346;28;20509;-76
2022/12/20 08:12:58;;;;;;;22.85;14.10;;;5.20;99.90;;;;;;5079429;28;20032;-76
2022/12/20 08:15:25;;;;;;;21.42;13.02;;;5.20;99.90;;;;;;5068940;28;20536;-76
2022/12/20 08:17:51;;;;;;;18.88;12.35;;;5.20;99.90;;;;;;5077792;28;20028;-78
2022/12/20 08:20:16;;;;;;;20.33;13.13;;;5.20;99.90;;;;;;4731277;28;9999818;-77
2022/12/20 08:22:42;;;;;;;21.73;14.05;;;5.30;99.90;;;;;;5073596;28;20023;-77
2022/12/20 08:25:08;;;;;;;20.42;14.10;;;5.30;99.90;;;;;;5076721;28;20494;-78
2022/12/20 08:27:34;;;;;;;24.25;14.05;;;5.30;99.90;;;;;;5072475;28;20020;-78
2022/12/20 08:29:59;;;;;;;20.77;13.43;;;5.40;99.90;;;;;;5073585;28;20081;-78
2022/12/20 08:32:26;;;;;;;19.50;13.45;;;5.50;99.90;;;;;;5072390;28;20434;-78
2022/12/20 08:34:52;;;;;;;24.00;13.85;;;5.50;99.90;;;;;;5079603;28;20023;-78
2022/12/20 08:37:18;;;;;;;23.70;14.07;;;5.60;99.90;;;;;;5074843;28;20028;-78
2022/12/20 08:39:44;;;;;;;19.48;13.95;;;5.70;99.90;;;;;;5075152;28;20032;-77
2022/12/20 08:42:10;;;;;;;24.73;14.70;;;5.70;99.90;;;;;;5071034;28;20036;-78
2022/12/20 08:44:36;;;;;;;23.95;14.23;;;5.80;99.90;;;;;;5079634;28;20104;-77
2022/12/20 08:47:01;;;;;;;24.70;13.32;;;5.90;99.90;;;;;;5072907;28;20041;-77
2022/12/20 08:49:27;;;;;;;24.10;14.07;;;5.90;99.90;;;;;;5064587;28;20125;-78
2022/12/20 08:51:53;;;;;;;23.55;13.82;;;6.00;99.90;;;;;;5079780;28;20036;-78
2022/12/20 08:54:18;;;;;;;21.50;13.23;;;6.00;99.90;;;;;;5069734;28;20050;-77
2022/12/20 08:56:44;;;;;;;21.65;13.57;;;6.00;99.90;;;;;;5083874;28;20468;-78
2022/12/20 08:59:09;;;;;;;21.83;13.77;;;6.10;99.90;;;;;;5081334;28;20036;-78
2022/12/20 09:01:35;;;;;;;24.17;13.82;;;6.10;99.90;;;;;;5082545;28;20028;-78
2022/12/20 09:04:01;;;;;;;21.55;13.05;;;6.10;99.90;;;;;;5074430;28;20486;-78
2022/12/20 09:06:26;;;;;;;20.52;12.60;;;6.20;99.90;;;;;;5071613;28;20484;-78
2022/12/20 09:08:52;;;;;;;21.65;12.98;;;6.20;99.90;;;;;;5082721;28;20067;-78
2022/12/20 09:11:21;;;;;;;19.65;13.02;;;6.20;99.90;;;;;;5076259;28;20009;-78
2022/12/20 09:13:49;;;;;;;20.88;12.40;;;6.20;99.90;;;;;;5071647;28;20103;-78
2022/12/20 09:16:18;;;;;;;20.05;13.10;;;6.20;99.90;;;;;;5073642;28;20024;-78
2022/12/20 09:18:51;;;;;;;25.55;16.10;;;6.30;99.90;;;;;;5075242;28;20028;-78
2022/12/20 09:21:18;;;;;;;21.83;13.85;;;6.30;99.90;;;;;;5077124;28;20037;-78
2022/12/20 09:23:43;;;;;;;20.83;13.35;;;6.40;99.90;;;;;;5064566;28;20047;-78
2022/12/20 09:26:16;;;;;;;19.52;13.23;;;6.40;99.90;;;;;;5083643;28;20302;-78
2022/12/20 09:28:43;;;;;;;20.73;13.07;;;6.40;99.90;;;;;;5079669;28;20081;-78
2022/12/20 09:31:14;;;;;;;23.83;12.85;;;6.40;99.90;;;;;;5077486;28;20135;-78
2022/12/20 09:33:41;;;;;;;20.50;12.45;;;6.40;99.90;;;;;;5071086;28;20031;-78
2022/12/20 09:36:10;;;;;;;19.27;12.13;;;6.40;99.90;;;;;;5078426;28;20024;-78
2022/12/20 09:38:36;;;;;;;19.10;11.73;;;6.40;99.90;;;;;;5074079;28;20029;-78
2022/12/20 09:41:04;;;;;;;17.75;11.55;;;6.40;99.90;;;;;;5079217;28;20022;-78
2022/12/20 09:43:31;;;;;;;17.95;10.98;;;6.40;99.90;;;;;;5069829;28;20038;-78
2022/12/20 09:46:00;;;;;;;14.40;10.77;;;6.40;99.90;;;;;;5078070;28;20052;-78
2022/12/20 09:48:32;;;;;;;19.45;11.77;;;6.30;99.90;;;;;;5080471;28;20024;-78
2022/12/20 09:51:04;;;;;;;20.88;11.88;;;6.40;99.90;;;;;;5078168;28;20029;-78
2022/12/20 09:53:48;;;;;;;16.48;10.98;;;6.40;99.90;;;;;;5068382;28;20032;-78
2022/12/20 09:56:31;;;;;;;17.35;11.00;;;6.40;99.90;;;;;;5071025;28;20471;-78
2022/12/20 09:59:05;;;;;;;16.95;10.82;;;6.50;99.90;;;;;;5067083;28;20027;-78
2022/12/20 10:01:34;;;;;;;16.33;10.95;;;6.50;99.90;;;;;;5072616;28;20085;-76
2022/12/20 10:04:11;;;;;;;16.42;10.95;;;6.50;99.90;;;;;;5071632;28;20021;-76
2022/12/20 10:06:55;;;;;;;15.52;10.30;;;;;;;;;;5081498;28;20572;-76
2022/12/20 10:09:40;;;;;;;16.75;11.02;;;;;;;;;;5071813;28;20036;-75
2022/12/20 10:12:08;;;;;;;14.70;10.27;;;;;;;;;;5072895;28;20028;-75
2022/12/20 10:14:53;;;;;;;16.42;10.32;;;;;;;;;;5073633;28;20036;-75
2022/12/20 10:17:38;;;;;;;17.27;11.20;;;;;;;;;;5072387;28;20027;-75
2022/12/20 10:20:29;;;;;;;16.20;10.50;;;;;;;;;;5075299;28;20689;-76
2022/12/20 10:23:04;;;;;;;15.07;10.02;;;;;;;;;;5075752;28;20028;-76
2022/12/20 10:25:31;;;;;;;18.88;10.40;;;;;;;;;;5076678;28;20089;-76
2022/12/20 10:28:00;;;;;;;14.18;9.50;;;;;;;;;;5077868;28;20031;-76
2022/12/20 10:30:27;;;;;;;14.85;9.07;;;;;;;;;;5079587;28;20020;-76
2022/12/20 10:32:55;;;;;;;13.73;9.40;;;;;;;;;;5074368;28;20106;-79
2022/12/20 10:35:23;;;;;;;13.70;9.77;;;;;;;;;;5074410;28;20035;-78
2022/12/20 10:38:06;;;;;;;13.35;9.00;;;;;;;;;;5076671;28;20086;-79
2022/12/20 10:40:35;;;;;;;17.52;9.00;;;;;;;;;;5080225;28;20059;-79
2022/12/20 10:43:02;;;;;;;13.80;8.95;;;;;;;;;;5074523;28;20120;-79
2022/12/20 10:45:32;;;;;;;12.90;8.65;;;;;;;;;;5069129;28;20032;-79
2022/12/20 10:47:59;;;;;;;15.05;8.68;;;;;;;;;;5080105;28;20062;-78
2022/12/20 10:50:26;;;;;;;14.07;9.02;;;;;;;;;;5081722;28;20024;-79
2022/12/20 10:53:10;;;;;;;13.15;8.88;;;;;;;;;;5085229;28;20020;-79
2022/12/20 10:55:38;;;;;;;12.75;8.90;;;;;;;;;;5083334;28;20036;-79
2022/12/20 10:58:15;;;;;;;13.40;8.75;;;;;;;;;;5081571;28;20066;-79
2022/12/20 11:00:41;;;;;;;14.75;8.73;;;;;;;;;;5094835;28;20040;-79
2022/12/20 11:03:10;;;;;;;10.95;8.25;;;;;;;;;;5072903;28;20055;-78
2022/12/20 11:05:37;;;;;;;12.07;8.50;;;;;;;;;;5081335;28;20074;-79
2022/12/20 11:08:15;;;;;;;13.05;8.30;;;;;;;;;;5080291;28;20691;-78
2022/12/20 11:10:41;;;;;;;13.00;7.70;;;;;;;;;;5085399;28;20028;-78
2022/12/20 11:13:18;;;;;;;17.25;9.40;;;;;;;;;;5084725;28;20027;-79
2022/12/20 11:15:48;;;;;;;13.95;8.27;;;;;;;;;;5084251;28;20551;-78
2022/12/20 11:18:17;;;;;;;12.30;7.65;;;;;;;;;;5079205;28;20121;-78
2022/12/20 11:20:49;;;;;;;14.32;8.07;;;;;;;;;;5072348;28;20062;-78
2022/12/20 11:23:18;;;;;;;13.45;8.15;;;;;;;;;;5084932;28;20031;-79
2022/12/20 11:25:51;;;;;;;10.85;8.05;;;;;;;;;;5078804;28;20084;-79
2022/12/20 11:28:20;;;;;;;11.68;7.50;;;;;;;;;;5074744;28;20171;-79
2022/12/20 11:30:46;;;;;;;11.93;7.82;;;;;;;;;;5080386;28;20059;-78
2022/12/20 11:33:12;;;;;;;14.73;9.60;;;;;;;;;;5081861;28;20482;-74
2022/12/20 11:35:39;;;;;;;14.85;9.18;;;;;;;;;;5071303;28;20040;-74
2022/12/20 11:38:11;;;;;;;15.93;9.63;;;;;;;;;;5075263;28;20029;-74
2022/12/20 11:40:43;;;;;;;11.73;7.38;;;;;;;;;;5079780;28;20712;-74
2022/12/20 11:43:25;;;;;;;11.88;7.43;;;;;;;;;;5081434;28;20081;-74
2022/12/20 11:46:14;;;;;;;14.40;7.63;;;;;;;;;;5070229;28;20044;-74
2022/12/20 11:48:57;;;;;;;9.77;6.82;;;;;;;;;;5040551;28;20060;-74
2022/12/20 11:51:26;;;;;;;10.10;6.65;;;;;;;;;;5078962;28;20024;-74
2022/12/20 11:53:55;;;;;;;9.98;6.65;;;;;;;;;;5076111;28;20054;-76
2022/12/20 11:56:24;;;;;;;12.23;8.00;;;;;;;;;;5075548;28;20035;-74
2022/12/20 11:58:53;;;;;;;9.80;7.03;;;;;;;;;;5073651;28;20024;-74
2022/12/20 12:01:24;;;;;;;12.45;6.90;;;;;;;;;;5080353;28;20023;-74
2022/12/20 12:04:09;;;;;;;9.63;6.63;;;;;;;;;;5076453;28;20865;-74
2022/12/20 12:06:37;;;;;;;9.60;6.90;;;;;;;;;;5079325;28;20107;-75
2022/12/20 12:09:12;;;;;;;10.85;7.40;;;;;;;;;;5079392;28;20020;-75
2022/12/20 12:11:43;;;;;;;12.10;7.30;;;;;;;;;;5078769;28;20558;-75
2022/12/20 12:14:15;;;;;;;11.38;7.25;;;;;;;;;;5078508;28;20059;-75
2022/12/20 12:16:45;;;;;;;13.88;7.55;;;;;;;;;;5068220;28;20025;-75
2022/12/20 12:19:12;;;;;;;11.07;7.18;;;;;;;;;;5080917;28;20401;-74
2022/12/20 12:21:48;;;;;;;13.40;6.95;;;;;;;;;;5079900;28;20039;-75
2022/12/20 12:24:34;;;;;;;11.88;7.35;;;;;;;;;;5072801;28;20078;-74
2022/12/20 12:27:00;;;;;;;11.00;6.80;;;;;;;;;;5077895;28;20546;-74
2022/12/20 12:29:28;;;;;;;13.35;7.35;;;;;;;;;;5078127;28;20746;-75
2022/12/20 12:32:00;;;;;;;11.48;7.20;;;;;;;;;;5066670;28;20434;-74
2022/12/20 12:34:35;;;;;;;11.10;7.35;;;;;;;;;;5068058;28;20024;-74
2022/12/20 12:37:01;;;;;;;9.90;6.93;;;;;;;;;;5079234;28;20131;-74
2022/12/20 12:39:30;;;;;;;11.05;6.50;;;;;;;;;;5077241;28;20158;-74
2022/12/20 12:41:56;;;;;;;11.75;7.40;;;;;;;;;;5071865;28;20074;-74
2022/12/20 12:44:41;;;;;;;10.73;6.60;;;;;;;;;;5076280;28;21857;-74
2022/12/20 12:47:20;;;;;;;11.95;7.00;;;;;;;;;;5076661;28;20028;-74
2022/12/20 12:49:48;;;;;;;10.45;6.68;;;;;;;;;;5081551;28;20401;-73
2022/12/20 12:52:33;;;;;;;12.68;7.32;;;;;;;;;;5077603;28;20036;-74
2022/12/20 12:54:59;;;;;;;12.82;8.30;;;;;;;;;;5081583;28;20032;-74
2022/12/20 12:57:25;;;;;;;12.05;7.35;;;;;;;;;;5082297;28;20040;-75
2022/12/20 12:59:51;;;;;;;11.65;7.03;;;;;;;;;;5080110;28;20040;-74
2022/12/20 13:02:19;;;;;;;12.02;7.13;;;;;;;;;;5072683;28;20222;-75
2022/12/20 13:05:04;;;;;;;12.98;8.02;;;;;;;;;;5077016;28;20043;-75
2022/12/20 13:07:33;;;;;;;14.55;7.38;;;;;;;;;;5072244;28;20032;-75
2022/12/20 13:10:00;;;;;;;12.45;7.82;;;;;;;;;;5072094;28;20032;-75
2022/12/20 13:12:36;;;;;;;13.38;7.63;;;;;;;;;;5076595;28;20508;-75
2022/12/20 13:15:22;;;;;;;14.90;8.95;;;;;;;;;;5084634;28;20024;-75
2022/12/20 13:17:48;;;;;;;11.55;7.63;;;;;;;;;;5064450;28;20043;-74
2022/12/20 13:20:17;;;;;;;13.05;7.78;;;;;;;;;;5082581;28;20029;-75
2022/12/20 13:23:03;;;;;;;12.13;7.30;;;;;;;;;;5076422;28;20028;-75